createdAt,value
2023-05-22T00:00:41.998Z,10.50
2023-05-22T00:03:27.318Z,9.80
2023-05-22T00:06:10.315Z,10.30
2023-05-22T00:12:10.240Z,11.90
2023-05-22T00:14:46.797Z,12.80
2023-05-22T00:17:39.929Z,11.60
2023-05-22T00:20:42.141Z,12.30
2023-05-22T00:23:41.603Z,11.50
2023-05-22T00:26:10.768Z,14.70
2023-05-22T00:28:51.746Z,12.80
2023-05-22T00:32:12.190Z,12.70
2023-05-22T00:35:08.604Z,9.90
2023-05-22T00:38:13.060Z,12.30
2023-05-22T00:44:02.487Z,10.60
2023-05-22T00:46:47.467Z,10.00
2023-05-22T00:49:37.238Z,15.70
2023-05-22T00:52:17.517Z,12.60
2023-05-22T00:55:11.359Z,12.40
2023-05-22T00:57:46.699Z,13.10
2023-05-22T01:00:59.922Z,16.50
2023-05-22T01:03:49.042Z,15.80
2023-05-22T01:06:32.612Z,13.10
2023-05-22T01:09:04.570Z,13.60
2023-05-22T01:11:47.176Z,13.40
2023-05-22T01:14:48.698Z,12.10
2023-05-22T01:17:40.835Z,11.00
2023-05-22T01:21:10.417Z,11.70
2023-05-22T01:23:55.030Z,17.00
2023-05-22T01:26:58.092Z,12.70
2023-05-22T01:30:31.760Z,12.40
2023-05-22T01:33:29.483Z,12.40
2023-05-22T01:36:31.053Z,17.10
2023-05-22T01:39:11.737Z,13.00
2023-05-22T01:41:44.783Z,12.50
2023-05-22T01:44:30.941Z,11.70
2023-05-22T01:47:05.674Z,17.60
2023-05-22T01:49:44.832Z,10.70
2023-05-22T01:52:34.951Z,12.40
2023-05-22T01:55:20.826Z,9.90
2023-05-22T01:58:10.364Z,10.90
2023-05-22T02:00:47.147Z,11.50
2023-05-22T02:03:29.335Z,8.50
2023-05-22T02:06:15.268Z,15.90
2023-05-22T02:08:59.646Z,18.20
2023-05-22T02:11:38.259Z,9.30
2023-05-22T02:14:15.652Z,12.10
2023-05-22T02:16:55.916Z,10.30
2023-05-22T02:19:32.610Z,13.80
2023-05-22T02:22:14.317Z,13.30
2023-05-22T02:24:53.030Z,10.40
2023-05-22T02:27:31.398Z,11.70
2023-05-22T02:30:25.152Z,11.00
2023-05-22T02:33:07.728Z,9.30
2023-05-22T02:35:47.941Z,17.00
2023-05-22T02:38:17.152Z,9.30
2023-05-22T02:41:03.899Z,9.50
2023-05-22T02:43:42.122Z,11.30
2023-05-22T02:46:13.826Z,14.40
2023-05-22T02:51:16.122Z,9.30
2023-05-22T02:53:49.806Z,14.00
2023-05-22T02:56:35.359Z,10.60
2023-05-22T02:59:13.110Z,16.20
2023-05-22T03:01:48.101Z,11.30
2023-05-22T03:04:29.777Z,11.10
2023-05-22T03:07:09.766Z,15.20
2023-05-22T03:09:48.957Z,13.20
2023-05-22T03:12:32.646Z,9.90
2023-05-22T03:15:08.707Z,12.60
2023-05-22T03:17:51.486Z,10.30
2023-05-22T03:20:24.243Z,10.70
2023-05-22T03:22:54.207Z,17.80
2023-05-22T03:25:26.389Z,14.50
2023-05-22T03:27:58.381Z,13.20
2023-05-22T03:30:35.384Z,11.10
2023-05-22T03:33:12.470Z,14.00
2023-05-22T03:35:44.413Z,11.30
2023-05-22T03:38:17.957Z,12.60
2023-05-22T03:40:55.046Z,10.90
2023-05-22T03:43:25.363Z,10.00
2023-05-22T03:48:39.908Z,11.10
2023-05-22T03:51:12.011Z,11.80
2023-05-22T03:53:56.518Z,9.40
2023-05-22T03:56:28.384Z,9.80
2023-05-22T03:58:57.508Z,9.00
2023-05-22T04:01:31.261Z,11.40
2023-05-22T04:04:13.207Z,10.20
2023-05-22T04:06:56.901Z,13.20
2023-05-22T04:09:38.214Z,11.00
2023-05-22T04:12:11.623Z,9.70
2023-05-22T04:14:53.598Z,10.60
2023-05-22T04:17:33.320Z,10.20
2023-05-22T04:20:16.357Z,11.70
2023-05-22T04:22:53.598Z,12.00
2023-05-22T04:25:26.709Z,9.70
2023-05-22T04:28:14.074Z,9.00
2023-05-22T04:31:01.919Z,11.00
2023-05-22T04:34:07.499Z,11.10
2023-05-22T04:37:11.645Z,11.60
2023-05-22T04:40:07.313Z,7.90
2023-05-22T04:43:04.441Z,9.70
2023-05-22T04:46:30.095Z,9.30
2023-05-22T04:49:17.379Z,13.40
2023-05-22T04:51:58.296Z,8.00
2023-05-22T04:55:30.253Z,10.50
2023-05-22T04:58:08.258Z,10.50
2023-05-22T05:01:04.791Z,11.70
2023-05-22T05:03:54.634Z,9.40
2023-05-22T05:06:27.367Z,7.60
2023-05-22T05:08:58.238Z,9.70
2023-05-22T05:11:53.901Z,14.20
2023-05-22T05:14:30.579Z,8.80
2023-05-22T05:17:26.080Z,10.60
2023-05-22T05:19:58.507Z,8.30
2023-05-22T05:23:14.216Z,10.10
2023-05-22T05:25:48.418Z,11.70
2023-05-22T05:28:24.480Z,8.10
2023-05-22T05:31:16.969Z,11.70
2023-05-22T05:34:30.961Z,8.60
2023-05-22T05:37:19.258Z,9.20
2023-05-22T05:39:56.862Z,8.10
2023-05-22T05:42:50.274Z,11.60
2023-05-22T05:45:46.829Z,11.50
2023-05-22T05:48:27.774Z,12.00
2023-05-22T05:51:13.562Z,10.40
2023-05-22T05:54:13.093Z,9.20
2023-05-22T05:56:52.655Z,9.60
2023-05-22T05:59:33.296Z,10.70
2023-05-22T06:02:34.364Z,10.70
2023-05-22T06:05:16.981Z,9.70
2023-05-22T06:08:13.401Z,15.70
2023-05-22T06:13:31.976Z,7.80
2023-05-22T06:14:08.543Z,7.40
2023-05-22T06:16:55.680Z,9.80
2023-05-22T06:19:31.262Z,14.40
2023-05-22T06:22:30.076Z,8.00
2023-05-22T06:25:02.802Z,7.50
2023-05-22T06:27:51.580Z,8.80
2023-05-22T06:33:10.959Z,6.40
2023-05-22T06:36:04.176Z,5.90
2023-05-22T06:38:42.665Z,7.70
2023-05-22T06:41:37.608Z,11.20
2023-05-22T06:44:22.093Z,10.90
2023-05-22T06:47:12.257Z,7.20
2023-05-22T06:50:00.009Z,5.10
2023-05-22T06:53:06.800Z,9.00
2023-05-22T06:56:01.035Z,7.30
2023-05-22T06:59:05.360Z,7.80
2023-05-22T07:02:22.422Z,6.30
2023-05-22T07:05:34.491Z,11.20
2023-05-22T07:08:11.667Z,9.20
2023-05-22T07:10:51.647Z,7.80
2023-05-22T07:13:54.238Z,4.60
2023-05-22T07:19:15.364Z,9.70
2023-05-22T07:25:29.912Z,9.60
2023-05-22T07:31:07.231Z,8.50
2023-05-22T07:33:57.530Z,5.20
2023-05-22T07:36:55.200Z,7.70
2023-05-22T07:39:32.859Z,10.50
2023-05-22T07:42:04.780Z,5.80
2023-05-22T07:44:41.731Z,4.80
2023-05-22T07:47:13.938Z,7.90
2023-05-22T07:49:56.347Z,6.10
2023-05-22T07:52:41.140Z,3.90
2023-05-22T07:55:21.800Z,4.70
2023-05-22T07:58:03.968Z,8.10
2023-05-22T08:00:42.310Z,7.90
2023-05-22T08:03:24.838Z,8.60
2023-05-22T08:06:09.334Z,4.70
2023-05-22T08:08:55.076Z,3.60
2023-05-22T08:11:40.179Z,8.60
2023-05-22T08:14:12.487Z,5.70
2023-05-22T08:16:46.768Z,5.60
2023-05-22T08:19:30.155Z,7.00
2023-05-22T08:22:08.950Z,7.90
2023-05-22T08:24:41.295Z,5.30
2023-05-22T08:27:18.256Z,6.80
2023-05-22T08:29:59.213Z,5.70
2023-05-22T08:32:43.728Z,5.20
2023-05-22T08:35:31.317Z,7.10
2023-05-22T08:38:11.859Z,4.30
2023-05-22T08:41:01.167Z,5.70
2023-05-22T08:43:31.865Z,6.10
2023-05-22T08:46:17.022Z,4.70
2023-05-22T08:49:05.187Z,7.00
2023-05-22T08:51:42.466Z,4.40
2023-05-22T08:54:14.301Z,6.10
2023-05-22T08:56:56.906Z,3.00
2023-05-22T08:59:36.637Z,5.20
2023-05-22T09:02:06.801Z,7.50
2023-05-22T09:04:35.934Z,4.20
2023-05-22T09:07:08.337Z,2.70
2023-05-22T09:09:41.756Z,4.50
2023-05-22T09:13:06.332Z,7.90
2023-05-22T09:15:46.036Z,5.80
2023-05-22T09:18:16.244Z,6.90
2023-05-22T09:20:48.662Z,5.00
2023-05-22T09:23:41.476Z,9.00
2023-05-22T09:26:22.678Z,8.60
2023-05-22T09:29:20.413Z,10.50
2023-05-22T09:32:19.481Z,6.30
2023-05-22T09:35:32.028Z,7.50
2023-05-22T09:38:11.433Z,4.50
2023-05-22T09:40:42.249Z,3.80
2023-05-22T09:47:23.683Z,2.60
2023-05-22T09:50:08.510Z,4.70
2023-05-22T09:52:46.525Z,5.50
2023-05-22T09:55:17.212Z,4.50
2023-05-22T09:58:04.413Z,7.30
2023-05-22T10:00:36.329Z,6.50
2023-05-22T10:03:15.073Z,3.40
2023-05-22T10:05:53.941Z,4.70
2023-05-22T10:08:37.118Z,5.50
2023-05-22T10:11:10.991Z,7.50
2023-05-22T10:13:42.426Z,4.90
2023-05-22T10:16:16.505Z,3.60
2023-05-22T10:18:49.231Z,7.20
2023-05-22T10:21:20.914Z,5.30
2023-05-22T10:23:52.073Z,4.80
2023-05-22T10:29:10.781Z,7.70
2023-05-22T10:32:11.212Z,9.60
2023-05-22T10:35:40.706Z,4.70
2023-05-22T10:38:46.117Z,5.90
2023-05-22T10:41:28.217Z,4.50
2023-05-22T10:43:58.076Z,5.70
2023-05-22T10:46:40.426Z,4.90
2023-05-22T10:49:23.060Z,5.30
2023-05-22T10:51:58.220Z,5.60
2023-05-22T10:54:53.353Z,4.30
2023-05-22T10:57:24.734Z,5.70
2023-05-22T11:00:13.171Z,6.50
2023-05-22T11:02:49.404Z,5.50
2023-05-22T11:05:25.917Z,7.40
2023-05-22T11:08:31.850Z,5.30
2023-05-22T11:11:12.504Z,4.90
2023-05-22T11:14:16.905Z,7.40
2023-05-22T11:17:32.614Z,6.90
2023-05-22T11:20:54.386Z,5.60
2023-05-22T11:23:43.331Z,3.70
2023-05-22T11:29:21.035Z,6.40
2023-05-22T11:31:50.954Z,8.80
2023-05-22T11:34:21.851Z,7.10
2023-05-22T11:36:53.290Z,9.50
2023-05-22T11:39:28.143Z,6.20
2023-05-22T11:41:57.914Z,3.70
2023-05-22T11:44:31.747Z,10.50
2023-05-22T11:47:13.573Z,6.80
2023-05-22T11:49:49.756Z,3.70
2023-05-22T11:52:19.863Z,8.10
2023-05-22T11:54:51.648Z,5.50
2023-05-22T11:57:25.633Z,4.10
2023-05-22T11:59:55.789Z,2.60
2023-05-22T12:02:28.193Z,5.40
2023-05-22T12:05:04.251Z,7.10
2023-05-22T12:07:33.964Z,5.60
2023-05-22T12:10:07.527Z,5.60
2023-05-22T12:12:39.953Z,6.20
2023-05-22T12:15:09.931Z,7.50
2023-05-22T12:17:40.718Z,4.90
2023-05-22T12:20:14.301Z,7.90
2023-05-22T12:23:02.276Z,6.40
2023-05-22T12:25:39.253Z,2.90
2023-05-22T12:28:12.840Z,5.70
2023-05-22T12:30:46.870Z,3.90
2023-05-22T12:33:21.568Z,7.00
2023-05-22T12:36:00.056Z,6.00
2023-05-22T12:38:33.440Z,5.20
2023-05-22T12:41:03.664Z,3.80
2023-05-22T12:43:35.023Z,5.80
2023-05-22T12:46:09.778Z,4.10
2023-05-22T12:48:39.037Z,7.70
2023-05-22T12:51:09.418Z,7.70
2023-05-22T12:53:40.885Z,4.50
2023-05-22T12:58:38.621Z,4.60
2023-05-22T13:01:09.687Z,3.80
2023-05-22T13:03:43.785Z,7.80
2023-05-22T13:06:22.575Z,6.00
2023-05-22T13:08:52.493Z,8.00
2023-05-22T13:11:23.133Z,6.40
2023-05-22T13:13:52.495Z,5.90
2023-05-22T13:16:21.537Z,5.90
2023-05-22T13:18:52.780Z,4.90
2023-05-22T13:21:26.790Z,4.80
2023-05-22T13:24:00.578Z,7.30
2023-05-22T13:26:31.535Z,3.60
2023-05-22T13:29:02.016Z,5.20
2023-05-22T13:31:38.056Z,4.50
2023-05-22T13:34:08.191Z,2.40
2023-05-22T13:36:37.372Z,5.90
2023-05-22T13:39:07.002Z,7.60
2023-05-22T13:41:39.179Z,7.30
2023-05-22T13:44:11.960Z,2.50
2023-05-22T13:46:41.339Z,5.80
2023-05-22T13:49:10.390Z,4.80
2023-05-22T13:51:39.598Z,6.60
2023-05-22T13:54:11.111Z,5.90
2023-05-22T13:56:41.263Z,9.10
2023-05-22T13:59:12.783Z,12.00
2023-05-22T14:01:42.534Z,7.60
2023-05-22T14:04:13.367Z,5.90
2023-05-22T14:06:43.938Z,11.90
2023-05-22T14:09:13.541Z,2.50
2023-05-22T14:11:52.774Z,5.60
2023-05-22T14:14:28.813Z,10.10
2023-05-22T14:17:04.802Z,4.30
2023-05-22T14:19:41.037Z,2.60
2023-05-22T14:22:14.942Z,10.80
2023-05-22T14:24:50.790Z,4.90
2023-05-22T14:27:28.842Z,7.90
2023-05-22T14:29:59.481Z,5.60
2023-05-22T14:32:33.264Z,6.70
2023-05-22T14:35:04.307Z,4.90
2023-05-22T14:41:54.266Z,8.30
2023-05-22T14:44:26.775Z,7.30
2023-05-22T14:47:05.486Z,3.60
2023-05-22T14:49:35.219Z,5.20
2023-05-22T14:52:16.599Z,5.30
2023-05-22T14:55:15.842Z,4.70
2023-05-22T14:57:47.862Z,2.90
2023-05-22T15:00:32.604Z,4.20
2023-05-22T15:03:05.129Z,6.60
2023-05-22T15:06:00.125Z,5.40
2023-05-22T15:08:32.573Z,3.00
2023-05-22T15:11:04.436Z,3.60
2023-05-22T15:13:38.241Z,6.00
2023-05-22T15:16:15.515Z,5.00
2023-05-22T15:19:29.545Z,7.00
2023-05-22T15:22:18.220Z,3.20
2023-05-22T15:28:04.177Z,6.20
2023-05-22T15:30:50.699Z,6.20
2023-05-22T15:33:21.371Z,8.50
2023-05-22T15:35:59.918Z,7.90
2023-05-22T15:38:33.508Z,12.00
2023-05-22T15:41:09.687Z,3.70
2023-05-22T15:43:49.890Z,5.00
2023-05-22T15:46:29.299Z,3.80
2023-05-22T15:48:58.896Z,4.80
2023-05-22T15:51:32.891Z,7.20
2023-05-22T15:54:14.581Z,6.30
2023-05-22T15:56:50.635Z,5.00
2023-05-22T15:59:39.965Z,6.70
2023-05-22T16:02:28.502Z,6.40
2023-05-22T16:05:00.415Z,5.50
2023-05-22T16:07:34.024Z,5.60
2023-05-22T16:10:33.560Z,6.10
2023-05-22T16:13:46.647Z,4.30
2023-05-22T16:17:00.817Z,10.10
2023-05-22T16:19:48.600Z,5.40
2023-05-22T16:22:44.261Z,5.30
2023-05-22T16:25:27.950Z,4.90
2023-05-22T16:28:40.827Z,5.10
2023-05-22T16:31:38.925Z,6.70
2023-05-22T16:34:18.438Z,5.70
2023-05-22T16:36:54.609Z,3.80
2023-05-22T16:39:36.545Z,7.80
2023-05-22T16:42:10.147Z,4.10
2023-05-22T16:44:53.891Z,5.90
2023-05-22T16:47:29.871Z,7.30
2023-05-22T16:50:22.787Z,3.90
2023-05-22T16:53:26.443Z,5.50
2023-05-22T16:56:35.506Z,6.00
2023-05-22T16:59:12.779Z,7.00
2023-05-22T17:02:04.547Z,7.90
2023-05-22T17:05:19.002Z,7.70
2023-05-22T17:08:07.144Z,5.40
2023-05-22T17:10:55.648Z,8.10
2023-05-22T17:13:50.658Z,5.30
2023-05-22T17:16:31.075Z,6.60
2023-05-22T17:19:21.465Z,7.80
2023-05-22T17:22:46.372Z,5.50
2023-05-22T17:26:35.181Z,5.80
2023-05-22T17:29:47.569Z,5.50
2023-05-22T17:32:43.677Z,6.40
2023-05-22T17:35:13.433Z,6.70
2023-05-22T17:37:49.887Z,7.70
2023-05-22T17:40:43.810Z,20.50
2023-05-22T17:43:23.576Z,6.00
2023-05-22T17:46:03.652Z,9.40
2023-05-22T17:48:39.531Z,9.50
2023-05-22T17:51:09.876Z,6.30
2023-05-22T17:53:43.268Z,9.50
2023-05-22T17:56:14.504Z,6.40
2023-05-22T17:58:43.718Z,13.20
2023-05-22T18:04:35.354Z,6.30
2023-05-22T18:07:09.849Z,5.20
2023-05-22T18:10:38.774Z,6.50
2023-05-22T18:14:41.299Z,9.40
2023-05-22T18:20:41.243Z,7.60
2023-05-22T18:23:40.791Z,7.00
2023-05-22T18:26:21.152Z,9.90
2023-05-22T18:29:09.975Z,7.40
2023-05-22T18:32:17.364Z,7.40
2023-05-22T18:35:02.538Z,12.40
2023-05-22T18:38:16.943Z,11.70
2023-05-22T18:41:45.170Z,12.00
2023-05-22T18:44:38.113Z,8.30
2023-05-22T18:51:39.593Z,9.90
2023-05-22T18:54:16.964Z,8.20
2023-05-22T18:57:45.764Z,11.50
2023-05-22T19:00:39.517Z,8.00
2023-05-22T19:06:37.294Z,10.60
2023-05-22T19:09:30.356Z,13.80
2023-05-22T19:16:47.766Z,7.90
2023-05-22T19:19:40.162Z,13.50
2023-05-22T19:22:18.812Z,10.70
2023-05-22T19:25:35.256Z,12.70
2023-05-22T19:28:08.725Z,10.40
2023-05-22T19:35:30.320Z,10.60
2023-05-22T19:39:35.540Z,11.50
2023-05-22T19:42:20.581Z,9.70
2023-05-22T19:45:53.465Z,15.50
2023-05-22T19:49:34.767Z,14.30
2023-05-22T20:00:44.183Z,10.40
2023-05-22T20:03:38.173Z,12.20
2023-05-22T20:06:32.823Z,16.00
2023-05-22T20:09:30.214Z,17.90
2023-05-22T20:12:14.592Z,15.40
2023-05-22T20:14:56.270Z,15.80
2023-05-22T20:17:41.315Z,10.10
2023-05-22T20:20:45.193Z,15.80
2023-05-22T20:24:41.150Z,13.70
2023-05-22T20:27:58.487Z,12.20
2023-05-22T20:30:50.472Z,15.90
2023-05-22T20:33:57.607Z,16.10
2023-05-22T20:36:43.711Z,14.10
2023-05-22T20:39:47.528Z,12.00
2023-05-22T20:42:35.127Z,16.00
2023-05-22T20:46:06.919Z,18.80
2023-05-22T20:51:40.531Z,20.80
2023-05-22T20:54:45.049Z,14.00
2023-05-22T20:57:51.871Z,12.80
2023-05-22T21:01:10.791Z,12.50
2023-05-22T21:04:03.917Z,17.40
2023-05-22T21:06:53.004Z,19.40
2023-05-22T21:09:57.254Z,14.70
2023-05-22T21:12:58.797Z,15.90
2023-05-22T21:19:06.936Z,13.30
2023-05-22T21:21:58.040Z,17.80
2023-05-22T21:24:34.960Z,12.20
2023-05-22T21:27:23.110Z,16.90
2023-05-22T21:30:01.584Z,12.60
2023-05-22T21:32:50.393Z,16.40
2023-05-22T21:35:29.963Z,13.40
2023-05-22T21:41:05.680Z,14.20
2023-05-22T21:44:01.540Z,14.90
2023-05-22T21:47:04.911Z,14.40
2023-05-22T21:49:50.910Z,13.50
2023-05-22T21:53:05.201Z,15.00
2023-05-22T21:56:29.334Z,14.10
2023-05-22T22:03:05.417Z,20.80
2023-05-22T22:06:14.246Z,18.50
2023-05-22T22:09:15.215Z,19.50
2023-05-22T22:11:58.876Z,18.60
2023-05-22T22:14:49.058Z,19.00
2023-05-22T22:18:00.737Z,17.50
2023-05-22T22:21:10.253Z,20.00
2023-05-22T22:24:19.066Z,20.10
2023-05-22T22:27:40.072Z,19.90
2023-05-22T22:30:24.494Z,26.50
2023-05-22T22:33:38.988Z,25.20
2023-05-22T22:36:56.468Z,16.20
2023-05-22T22:39:39.077Z,18.40
2023-05-22T22:42:25.542Z,14.90
2023-05-22T22:45:07.914Z,18.50
2023-05-22T22:48:13.810Z,18.40
2023-05-22T22:51:38.684Z,16.60
2023-05-22T22:54:30.197Z,14.50
2023-05-22T22:57:38.897Z,16.90
2023-05-22T23:00:20.439Z,16.50
2023-05-22T23:03:32.540Z,14.10
2023-05-22T23:06:17.189Z,13.20
2023-05-22T23:09:17.864Z,13.00
2023-05-22T23:12:31.729Z,15.30
2023-05-22T23:15:37.906Z,12.20
2023-05-22T23:18:28.891Z,11.70
2023-05-22T23:21:31.482Z,13.60
2023-05-22T23:24:13.272Z,15.50
2023-05-22T23:27:06.530Z,17.60
2023-05-22T23:30:14.109Z,15.50
2023-05-22T23:33:16.494Z,13.90
2023-05-22T23:36:06.886Z,14.80
2023-05-22T23:38:47.466Z,14.90
2023-05-22T23:41:33.644Z,24.70
2023-05-22T23:44:34.578Z,17.20
2023-05-22T23:47:13.752Z,16.00
2023-05-22T23:49:59.647Z,17.10
2023-05-22T23:53:01.565Z,19.80
2023-05-22T23:56:26.969Z,17.90
2023-05-22T23:59:20.784Z,20.50
